sensor_id;sensor_type;location;lat;lon;timestamp;P1;durP1;ratioP1;P2;durP2;ratioP2
27223;SDS011;14965;50.660;13.226;2023-09-19T00:02:17;6.03;;;2.30;;
27223;SDS011;14965;50.660;13.226;2023-09-19T00:04:44;4.20;;;2.20;;
27223;SDS011;14965;50.660;13.226;2023-09-19T00:07:10;5.72;;;2.50;;
27223;SDS011;14965;50.660;13.226;2023-09-19T00:09:36;5.13;;;2.08;;
27223;SDS011;14965;50.660;13.226;2023-09-19T00:12:03;3.58;;;1.98;;
27223;SDS011;14965;50.660;13.226;2023-09-19T00:14:30;3.57;;;1.97;;
27223;SDS011;14965;50.660;13.226;2023-09-19T00:16:56;4.90;;;2.17;;
27223;SDS011;14965;50.660;13.226;2023-09-19T00:19:22;3.75;;;2.10;;
27223;SDS011;14965;50.660;13.226;2023-09-19T00:21:50;5.25;;;2.15;;
27223;SDS011;14965;50.660;13.226;2023-09-19T00:24:16;7.10;;;2.58;;
27223;SDS011;14965;50.660;13.226;2023-09-19T00:26:41;4.40;;;1.90;;
27223;SDS011;14965;50.660;13.226;2023-09-19T00:29:07;3.67;;;1.90;;
27223;SDS011;14965;50.660;13.226;2023-09-19T00:31:33;3.78;;;1.90;;
27223;SDS011;14965;50.660;13.226;2023-09-19T00:34:00;3.40;;;1.88;;
27223;SDS011;14965;50.660;13.226;2023-09-19T00:36:26;2.78;;;1.95;;
27223;SDS011;14965;50.660;13.226;2023-09-19T00:38:53;3.83;;;2.05;;
27223;SDS011;14965;50.660;13.226;2023-09-19T00:41:19;6.90;;;2.10;;
27223;SDS011;14965;50.660;13.226;2023-09-19T00:43:45;2.97;;;1.90;;
27223;SDS011;14965;50.660;13.226;2023-09-19T00:46:11;5.45;;;2.10;;
27223;SDS011;14965;50.660;13.226;2023-09-19T00:48:38;5.15;;;1.90;;
27223;SDS011;14965;50.660;13.226;2023-09-19T00:51:07;3.55;;;1.90;;
27223;SDS011;14965;50.660;13.226;2023-09-19T00:53:33;5.50;;;2.03;;
27223;SDS011;14965;50.660;13.226;2023-09-19T00:56:01;2.47;;;1.50;;
27223;SDS011;14965;50.660;13.226;2023-09-19T00:58:29;4.43;;;1.55;;
27223;SDS011;14965;50.660;13.226;2023-09-19T01:00:55;3.95;;;1.73;;
27223;SDS011;14965;50.660;13.226;2023-09-19T01:03:21;3.13;;;1.70;;
27223;SDS011;14965;50.660;13.226;2023-09-19T01:05:48;4.10;;;1.85;;
27223;SDS011;14965;50.660;13.226;2023-09-19T01:08:15;3.10;;;1.60;;
27223;SDS011;14965;50.660;13.226;2023-09-19T01:10:43;2.97;;;1.40;;
27223;SDS011;14965;50.660;13.226;2023-09-19T01:13:21;4.35;;;1.67;;
27223;SDS011;14965;50.660;13.226;2023-09-19T01:15:59;3.05;;;1.48;;
27223;SDS011;14965;50.660;13.226;2023-09-19T01:18:35;1.53;;;1.37;;
27223;SDS011;14965;50.660;13.226;2023-09-19T01:21:14;2.67;;;1.50;;
27223;SDS011;14965;50.660;13.226;2023-09-19T01:23:56;1.58;;;1.30;;
27223;SDS011;14965;50.660;13.226;2023-09-19T01:26:51;3.63;;;1.70;;
27223;SDS011;14965;50.660;13.226;2023-09-19T01:29:45;4.47;;;1.50;;
27223;SDS011;14965;50.660;13.226;2023-09-19T01:32:16;3.15;;;1.38;;
27223;SDS011;14965;50.660;13.226;2023-09-19T01:35:02;2.53;;;1.67;;
27223;SDS011;14965;50.660;13.226;2023-09-19T01:37:28;2.50;;;1.50;;
27223;SDS011;14965;50.660;13.226;2023-09-19T01:39:55;2.80;;;1.60;;
27223;SDS011;14965;50.660;13.226;2023-09-19T01:42:26;2.55;;;1.50;;
27223;SDS011;14965;50.660;13.226;2023-09-19T01:45:09;2.17;;;1.58;;
27223;SDS011;14965;50.660;13.226;2023-09-19T01:47:41;1.73;;;1.27;;
27223;SDS011;14965;50.660;13.226;2023-09-19T01:50:17;1.30;;;1.20;;
27223;SDS011;14965;50.660;13.226;2023-09-19T01:52:56;2.58;;;1.33;;
27223;SDS011;14965;50.660;13.226;2023-09-19T01:55:29;1.67;;;1.23;;
27223;SDS011;14965;50.660;13.226;2023-09-19T01:58:01;4.68;;;1.55;;
27223;SDS011;14965;50.660;13.226;2023-09-19T02:00:32;2.35;;;1.45;;
27223;SDS011;14965;50.660;13.226;2023-09-19T02:03:04;2.53;;;1.33;;
27223;SDS011;14965;50.660;13.226;2023-09-19T02:05:31;4.40;;;1.70;;
27223;SDS011;14965;50.660;13.226;2023-09-19T02:07:57;1.92;;;1.58;;
27223;SDS011;14965;50.660;13.226;2023-09-19T02:10:23;3.55;;;1.40;;
27223;SDS011;14965;50.660;13.226;2023-09-19T02:12:49;2.47;;;1.20;;
27223;SDS011;14965;50.660;13.226;2023-09-19T02:15:16;5.57;;;1.50;;
27223;SDS011;14965;50.660;13.226;2023-09-19T02:17:42;2.88;;;1.30;;
27223;SDS011;14965;50.660;13.226;2023-09-19T02:20:10;1.88;;;1.40;;
27223;SDS011;14965;50.660;13.226;2023-09-19T02:25:03;1.85;;;1.40;;
27223;SDS011;14965;50.660;13.226;2023-09-19T02:27:30;2.53;;;1.52;;
27223;SDS011;14965;50.660;13.226;2023-09-19T02:29:56;2.47;;;1.70;;
27223;SDS011;14965;50.660;13.226;2023-09-19T02:32:22;5.28;;;1.70;;
27223;SDS011;14965;50.660;13.226;2023-09-19T02:34:48;3.92;;;1.52;;
27223;SDS011;14965;50.660;13.226;2023-09-19T02:37:16;6.05;;;1.60;;
27223;SDS011;14965;50.660;13.226;2023-09-19T02:39:42;7.10;;;2.15;;
27223;SDS011;14965;50.660;13.226;2023-09-19T02:42:08;4.20;;;1.63;;
27223;SDS011;14965;50.660;13.226;2023-09-19T02:44:34;5.18;;;1.45;;
27223;SDS011;14965;50.660;13.226;2023-09-19T02:47:00;4.18;;;1.65;;
27223;SDS011;14965;50.660;13.226;2023-09-19T02:49:26;3.42;;;1.45;;
27223;SDS011;14965;50.660;13.226;2023-09-19T02:51:52;5.63;;;1.48;;
27223;SDS011;14965;50.660;13.226;2023-09-19T02:54:19;5.47;;;1.40;;
27223;SDS011;14965;50.660;13.226;2023-09-19T02:56:45;3.40;;;1.70;;
27223;SDS011;14965;50.660;13.226;2023-09-19T02:59:12;3.88;;;1.50;;
27223;SDS011;14965;50.660;13.226;2023-09-19T03:01:38;4.28;;;1.70;;
27223;SDS011;14965;50.660;13.226;2023-09-19T03:04:04;3.58;;;1.70;;
27223;SDS011;14965;50.660;13.226;2023-09-19T03:06:30;4.82;;;1.80;;
27223;SDS011;14965;50.660;13.226;2023-09-19T03:08:56;3.63;;;1.73;;
27223;SDS011;14965;50.660;13.226;2023-09-19T03:11:24;4.60;;;2.05;;
27223;SDS011;14965;50.660;13.226;2023-09-19T03:13:51;5.95;;;1.90;;
27223;SDS011;14965;50.660;13.226;2023-09-19T03:16:18;4.38;;;2.13;;
27223;SDS011;14965;50.660;13.226;2023-09-19T03:18:44;5.00;;;2.17;;
27223;SDS011;14965;50.660;13.226;2023-09-19T03:21:10;7.88;;;2.00;;
27223;SDS011;14965;50.660;13.226;2023-09-19T03:23:36;5.25;;;2.22;;
27223;SDS011;14965;50.660;13.226;2023-09-19T03:26:02;5.88;;;2.13;;
27223;SDS011;14965;50.660;13.226;2023-09-19T03:28:29;4.93;;;2.00;;
27223;SDS011;14965;50.660;13.226;2023-09-19T03:30:59;3.72;;;2.10;;
27223;SDS011;14965;50.660;13.226;2023-09-19T03:33:27;5.55;;;2.53;;
27223;SDS011;14965;50.660;13.226;2023-09-19T03:35:53;3.95;;;2.17;;
27223;SDS011;14965;50.660;13.226;2023-09-19T03:38:20;5.13;;;2.58;;
27223;SDS011;14965;50.660;13.226;2023-09-19T03:40:46;6.03;;;2.35;;
27223;SDS011;14965;50.660;13.226;2023-09-19T03:43:12;8.43;;;2.60;;
27223;SDS011;14965;50.660;13.226;2023-09-19T03:45:39;8.05;;;2.20;;
27223;SDS011;14965;50.660;13.226;2023-09-19T03:48:07;4.53;;;2.55;;
27223;SDS011;14965;50.660;13.226;2023-09-19T03:50:34;5.68;;;2.58;;
27223;SDS011;14965;50.660;13.226;2023-09-19T03:52:59;6.35;;;2.35;;
27223;SDS011;14965;50.660;13.226;2023-09-19T03:55:25;3.85;;;2.15;;
27223;SDS011;14965;50.660;13.226;2023-09-19T03:57:51;4.00;;;2.40;;
27223;SDS011;14965;50.660;13.226;2023-09-19T04:00:17;3.08;;;2.17;;
27223;SDS011;14965;50.660;13.226;2023-09-19T04:02:45;6.57;;;2.40;;
27223;SDS011;14965;50.660;13.226;2023-09-19T04:05:11;3.47;;;2.28;;
27223;SDS011;14965;50.660;13.226;2023-09-19T04:07:37;3.85;;;2.30;;
27223;SDS011;14965;50.660;13.226;2023-09-19T04:10:03;3.40;;;2.30;;
27223;SDS011;14965;50.660;13.226;2023-09-19T04:12:30;5.10;;;2.20;;
27223;SDS011;14965;50.660;13.226;2023-09-19T04:14:56;3.72;;;2.10;;
27223;SDS011;14965;50.660;13.226;2023-09-19T04:17:22;6.05;;;2.60;;
27223;SDS011;14965;50.660;13.226;2023-09-19T04:19:49;4.72;;;2.13;;
27223;SDS011;14965;50.660;13.226;2023-09-19T04:22:15;5.57;;;2.15;;
27223;SDS011;14965;50.660;13.226;2023-09-19T04:24:41;4.18;;;2.17;;
27223;SDS011;14965;50.660;13.226;2023-09-19T04:27:07;2.75;;;1.98;;
27223;SDS011;14965;50.660;13.226;2023-09-19T04:29:33;3.63;;;2.40;;
27223;SDS011;14965;50.660;13.226;2023-09-19T04:31:59;7.07;;;2.38;;
27223;SDS011;14965;50.660;13.226;2023-09-19T04:34:25;6.22;;;2.20;;
27223;SDS011;14965;50.660;13.226;2023-09-19T04:36:52;3.42;;;2.22;;
27223;SDS011;14965;50.660;13.226;2023-09-19T04:39:18;3.38;;;2.40;;
27223;SDS011;14965;50.660;13.226;2023-09-19T04:41:44;4.07;;;2.30;;
27223;SDS011;14965;50.660;13.226;2023-09-19T04:44:10;4.38;;;2.40;;
27223;SDS011;14965;50.660;13.226;2023-09-19T04:46:36;4.72;;;2.63;;
27223;SDS011;14965;50.660;13.226;2023-09-19T04:49:02;4.82;;;2.40;;
27223;SDS011;14965;50.660;13.226;2023-09-19T04:51:28;4.80;;;2.30;;
27223;SDS011;14965;50.660;13.226;2023-09-19T04:53:55;5.25;;;2.03;;
27223;SDS011;14965;50.660;13.226;2023-09-19T04:56:21;4.40;;;2.03;;
27223;SDS011;14965;50.660;13.226;2023-09-19T04:58:47;3.97;;;2.05;;
27223;SDS011;14965;50.660;13.226;2023-09-19T05:01:13;6.68;;;2.55;;
27223;SDS011;14965;50.660;13.226;2023-09-19T05:03:39;6.38;;;2.05;;
27223;SDS011;14965;50.660;13.226;2023-09-19T05:06:04;7.70;;;2.47;;
27223;SDS011;14965;50.660;13.226;2023-09-19T05:08:30;4.05;;;2.47;;
27223;SDS011;14965;50.660;13.226;2023-09-19T05:10:58;3.17;;;2.05;;
27223;SDS011;14965;50.660;13.226;2023-09-19T05:13:26;3.13;;;2.25;;
27223;SDS011;14965;50.660;13.226;2023-09-19T05:15:52;3.15;;;2.10;;
27223;SDS011;14965;50.660;13.226;2023-09-19T05:18:18;4.03;;;2.20;;
27223;SDS011;14965;50.660;13.226;2023-09-19T05:20:44;3.00;;;2.08;;
27223;SDS011;14965;50.660;13.226;2023-09-19T05:23:10;7.35;;;2.42;;
27223;SDS011;14965;50.660;13.226;2023-09-19T05:25:36;5.15;;;2.40;;
27223;SDS011;14965;50.660;13.226;2023-09-19T05:28:07;3.15;;;2.03;;
27223;SDS011;14965;50.660;13.226;2023-09-19T05:30:34;4.68;;;2.00;;
27223;SDS011;14965;50.660;13.226;2023-09-19T05:33:01;3.88;;;2.28;;
27223;SDS011;14965;50.660;13.226;2023-09-19T05:35:27;4.00;;;2.30;;
27223;SDS011;14965;50.660;13.226;2023-09-19T05:37:54;5.93;;;2.00;;
27223;SDS011;14965;50.660;13.226;2023-09-19T05:40:20;6.35;;;2.10;;
27223;SDS011;14965;50.660;13.226;2023-09-19T05:42:46;3.70;;;2.00;;
27223;SDS011;14965;50.660;13.226;2023-09-19T05:45:14;4.43;;;2.20;;
27223;SDS011;14965;50.660;13.226;2023-09-19T05:47:40;2.42;;;2.00;;
27223;SDS011;14965;50.660;13.226;2023-09-19T05:50:06;2.72;;;1.90;;
27223;SDS011;14965;50.660;13.226;2023-09-19T05:52:32;4.50;;;2.28;;
27223;SDS011;14965;50.660;13.226;2023-09-19T05:54:58;2.65;;;2.15;;
27223;SDS011;14965;50.660;13.226;2023-09-19T05:57:24;4.40;;;2.60;;
27223;SDS011;14965;50.660;13.226;2023-09-19T05:59:50;2.50;;;1.80;;
27223;SDS011;14965;50.660;13.226;2023-09-19T06:02:18;4.95;;;2.38;;
27223;SDS011;14965;50.660;13.226;2023-09-19T06:04:44;3.03;;;2.10;;
27223;SDS011;14965;50.660;13.226;2023-09-19T06:07:10;5.38;;;2.10;;
27223;SDS011;14965;50.660;13.226;2023-09-19T06:09:36;3.88;;;2.08;;
27223;SDS011;14965;50.660;13.226;2023-09-19T06:12:02;4.75;;;2.08;;
27223;SDS011;14965;50.660;13.226;2023-09-19T06:14:28;3.78;;;2.00;;
27223;SDS011;14965;50.660;13.226;2023-09-19T06:16:54;3.00;;;2.00;;
27223;SDS011;14965;50.660;13.226;2023-09-19T06:19:21;2.55;;;1.80;;
27223;SDS011;14965;50.660;13.226;2023-09-19T06:21:48;3.97;;;1.85;;
27223;SDS011;14965;50.660;13.226;2023-09-19T06:24:14;2.47;;;1.90;;
27223;SDS011;14965;50.660;13.226;2023-09-19T06:26:40;2.80;;;1.90;;
27223;SDS011;14965;50.660;13.226;2023-09-19T06:29:06;3.40;;;2.08;;
27223;SDS011;14965;50.660;13.226;2023-09-19T06:31:32;3.22;;;1.70;;
27223;SDS011;14965;50.660;13.226;2023-09-19T06:33:58;3.05;;;2.03;;
27223;SDS011;14965;50.660;13.226;2023-09-19T06:36:25;3.40;;;2.08;;
27223;SDS011;14965;50.660;13.226;2023-09-19T06:38:51;4.38;;;2.00;;
27223;SDS011;14965;50.660;13.226;2023-09-19T06:41:17;3.65;;;1.70;;
27223;SDS011;14965;50.660;13.226;2023-09-19T06:43:43;3.45;;;1.70;;
27223;SDS011;14965;50.660;13.226;2023-09-19T06:46:09;4.05;;;2.08;;
27223;SDS011;14965;50.660;13.226;2023-09-19T06:48:35;2.53;;;1.80;;
27223;SDS011;14965;50.660;13.226;2023-09-19T06:51:01;5.60;;;2.15;;
27223;SDS011;14965;50.660;13.226;2023-09-19T06:53:29;2.35;;;1.65;;
27223;SDS011;14965;50.660;13.226;2023-09-19T06:55:55;6.60;;;1.95;;
27223;SDS011;14965;50.660;13.226;2023-09-19T06:58:21;3.67;;;2.03;;
27223;SDS011;14965;50.660;13.226;2023-09-19T07:00:47;4.05;;;2.03;;
27223;SDS011;14965;50.660;13.226;2023-09-19T07:03:13;2.53;;;1.77;;
27223;SDS011;14965;50.660;13.226;2023-09-19T07:05:40;3.85;;;1.50;;
27223;SDS011;14965;50.660;13.226;2023-09-19T07:08:06;4.57;;;1.65;;
27223;SDS011;14965;50.660;13.226;2023-09-19T07:10:35;3.90;;;2.00;;
27223;SDS011;14965;50.660;13.226;2023-09-19T07:13:01;2.63;;;1.65;;
27223;SDS011;14965;50.660;13.226;2023-09-19T07:17:58;2.35;;;1.50;;
27223;SDS011;14965;50.660;13.226;2023-09-19T07:20:24;2.15;;;1.67;;
27223;SDS011;14965;50.660;13.226;2023-09-19T07:22:50;5.38;;;1.90;;
27223;SDS011;14965;50.660;13.226;2023-09-19T07:25:16;3.10;;;1.52;;
27223;SDS011;14965;50.660;13.226;2023-09-19T07:27:45;2.80;;;1.92;;
27223;SDS011;14965;50.660;13.226;2023-09-19T07:30:12;2.47;;;1.27;;
27223;SDS011;14965;50.660;13.226;2023-09-19T07:32:38;1.80;;;1.30;;
27223;SDS011;14965;50.660;13.226;2023-09-19T07:35:04;3.17;;;1.63;;
27223;SDS011;14965;50.660;13.226;2023-09-19T07:37:31;3.60;;;1.42;;
27223;SDS011;14965;50.660;13.226;2023-09-19T07:39:57;4.95;;;1.65;;
27223;SDS011;14965;50.660;13.226;2023-09-19T07:42:23;4.93;;;1.55;;
27223;SDS011;14965;50.660;13.226;2023-09-19T07:44:51;2.80;;;1.67;;
27223;SDS011;14965;50.660;13.226;2023-09-19T07:47:17;3.00;;;1.60;;
27223;SDS011;14965;50.660;13.226;2023-09-19T07:49:43;1.90;;;1.20;;
27223;SDS011;14965;50.660;13.226;2023-09-19T07:52:12;4.10;;;1.40;;
27223;SDS011;14965;50.660;13.226;2023-09-19T07:54:38;4.30;;;1.60;;
27223;SDS011;14965;50.660;13.226;2023-09-19T07:57:04;4.38;;;1.60;;
27223;SDS011;14965;50.660;13.226;2023-09-19T07:59:30;6.07;;;1.90;;
27223;SDS011;14965;50.660;13.226;2023-09-19T08:01:58;5.50;;;1.67;;
27223;SDS011;14965;50.660;13.226;2023-09-19T08:04:24;8.55;;;1.58;;
27223;SDS011;14965;50.660;13.226;2023-09-19T08:06:50;5.88;;;1.60;;
27223;SDS011;14965;50.660;13.226;2023-09-19T08:09:15;12.77;;;1.80;;
27223;SDS011;14965;50.660;13.226;2023-09-19T08:11:41;7.15;;;1.60;;
27223;SDS011;14965;50.660;13.226;2023-09-19T08:14:07;5.50;;;1.80;;
27223;SDS011;14965;50.660;13.226;2023-09-19T08:16:33;4.00;;;1.50;;
27223;SDS011;14965;50.660;13.226;2023-09-19T08:19:01;5.78;;;1.88;;
27223;SDS011;14965;50.660;13.226;2023-09-19T08:21:27;5.85;;;1.80;;
27223;SDS011;14965;50.660;13.226;2023-09-19T08:23:53;4.95;;;1.67;;
27223;SDS011;14965;50.660;13.226;2023-09-19T08:26:19;13.05;;;1.65;;
27223;SDS011;14965;50.660;13.226;2023-09-19T08:28:44;4.63;;;1.60;;
27223;SDS011;14965;50.660;13.226;2023-09-19T08:31:10;8.50;;;1.60;;
27223;SDS011;14965;50.660;13.226;2023-09-19T08:33:37;4.30;;;1.73;;
27223;SDS011;14965;50.660;13.226;2023-09-19T08:36:05;5.65;;;1.85;;
27223;SDS011;14965;50.660;13.226;2023-09-19T08:41:00;7.05;;;1.85;;
27223;SDS011;14965;50.660;13.226;2023-09-19T08:43:31;5.43;;;2.10;;
27223;SDS011;14965;50.660;13.226;2023-09-19T08:45:58;5.63;;;1.67;;
27223;SDS011;14965;50.660;13.226;2023-09-19T08:48:35;3.27;;;1.83;;
27223;SDS011;14965;50.660;13.226;2023-09-19T08:51:12;4.53;;;1.60;;
27223;SDS011;14965;50.660;13.226;2023-09-19T08:53:52;7.45;;;1.75;;
27223;SDS011;14965;50.660;13.226;2023-09-19T08:56:31;2.53;;;1.42;;
27223;SDS011;14965;50.660;13.226;2023-09-19T08:59:00;3.08;;;1.60;;
27223;SDS011;14965;50.660;13.226;2023-09-19T09:01:28;2.33;;;1.60;;
27223;SDS011;14965;50.660;13.226;2023-09-19T09:03:56;3.22;;;1.75;;
27223;SDS011;14965;50.660;13.226;2023-09-19T09:06:25;4.22;;;1.70;;
27223;SDS011;14965;50.660;13.226;2023-09-19T09:08:51;3.67;;;1.50;;
27223;SDS011;14965;50.660;13.226;2023-09-19T09:11:18;4.30;;;1.70;;
27223;SDS011;14965;50.660;13.226;2023-09-19T09:13:45;2.90;;;1.60;;
27223;SDS011;14965;50.660;13.226;2023-09-19T09:16:11;2.58;;;1.60;;
27223;SDS011;14965;50.660;13.226;2023-09-19T09:18:38;3.88;;;1.60;;
27223;SDS011;14965;50.660;13.226;2023-09-19T09:21:04;2.20;;;1.67;;
27223;SDS011;14965;50.660;13.226;2023-09-19T09:23:32;3.72;;;1.60;;
27223;SDS011;14965;50.660;13.226;2023-09-19T09:25:58;3.00;;;1.63;;
27223;SDS011;14965;50.660;13.226;2023-09-19T09:28:25;5.22;;;1.60;;
27223;SDS011;14965;50.660;13.226;2023-09-19T09:30:53;4.55;;;1.65;;
27223;SDS011;14965;50.660;13.226;2023-09-19T09:33:20;2.20;;;1.20;;
27223;SDS011;14965;50.660;13.226;2023-09-19T09:35:47;2.22;;;1.23;;
27223;SDS011;14965;50.660;13.226;2023-09-19T09:38:15;3.67;;;1.38;;
27223;SDS011;14965;50.660;13.226;2023-09-19T09:40:49;2.58;;;1.38;;
27223;SDS011;14965;50.660;13.226;2023-09-19T09:43:24;2.15;;;1.15;;
27223;SDS011;14965;50.660;13.226;2023-09-19T09:46:10;2.70;;;1.50;;
27223;SDS011;14965;50.660;13.226;2023-09-19T09:48:40;3.20;;;1.27;;
27223;SDS011;14965;50.660;13.226;2023-09-19T09:51:06;3.45;;;1.50;;
27223;SDS011;14965;50.660;13.226;2023-09-19T09:53:32;2.22;;;1.10;;
27223;SDS011;14965;50.660;13.226;2023-09-19T09:56:00;3.78;;;1.42;;
27223;SDS011;14965;50.660;13.226;2023-09-19T09:58:28;2.40;;;1.00;;
27223;SDS011;14965;50.660;13.226;2023-09-19T10:00:54;1.98;;;1.15;;
27223;SDS011;14965;50.660;13.226;2023-09-19T10:03:21;5.80;;;1.23;;
27223;SDS011;14965;50.660;13.226;2023-09-19T10:05:46;3.17;;;1.20;;
27223;SDS011;14965;50.660;13.226;2023-09-19T10:08:19;2.25;;;1.10;;
27223;SDS011;14965;50.660;13.226;2023-09-19T10:10:45;6.22;;;1.20;;
27223;SDS011;14965;50.660;13.226;2023-09-19T10:13:12;3.05;;;1.00;;
27223;SDS011;14965;50.660;13.226;2023-09-19T10:15:39;2.22;;;1.00;;
27223;SDS011;14965;50.660;13.226;2023-09-19T10:18:10;2.72;;;1.00;;
27223;SDS011;14965;50.660;13.226;2023-09-19T10:20:38;1.65;;;0.82;;
27223;SDS011;14965;50.660;13.226;2023-09-19T10:23:05;0.93;;;0.82;;
27223;SDS011;14965;50.660;13.226;2023-09-19T10:28:02;5.75;;;1.20;;
27223;SDS011;14965;50.660;13.226;2023-09-19T10:30:32;1.48;;;0.98;;
27223;SDS011;14965;50.660;13.226;2023-09-19T10:33:03;5.75;;;1.10;;
27223;SDS011;14965;50.660;13.226;2023-09-19T10:35:29;2.78;;;1.30;;
27223;SDS011;14965;50.660;13.226;2023-09-19T10:37:59;2.05;;;0.93;;
27223;SDS011;14965;50.660;13.226;2023-09-19T10:40:26;2.10;;;1.10;;
27223;SDS011;14965;50.660;13.226;2023-09-19T10:42:53;1.17;;;0.70;;
27223;SDS011;14965;50.660;13.226;2023-09-19T10:45:25;2.70;;;1.00;;
27223;SDS011;14965;50.660;13.226;2023-09-19T10:47:55;5.15;;;0.98;;
27223;SDS011;14965;50.660;13.226;2023-09-19T10:50:21;2.08;;;0.90;;
27223;SDS011;14965;50.660;13.226;2023-09-19T10:52:47;3.53;;;1.15;;
27223;SDS011;14965;50.660;13.226;2023-09-19T10:55:15;1.67;;;1.00;;
27223;SDS011;14965;50.660;13.226;2023-09-19T10:57:44;1.15;;;0.85;;
27223;SDS011;14965;50.660;13.226;2023-09-19T11:00:12;2.25;;;0.98;;
27223;SDS011;14965;50.660;13.226;2023-09-19T11:02:39;3.90;;;1.17;;
27223;SDS011;14965;50.660;13.226;2023-09-19T11:05:12;2.28;;;0.85;;
27223;SDS011;14965;50.660;13.226;2023-09-19T11:13:23;3.00;;;0.90;;
27223;SDS011;14965;50.660;13.226;2023-09-19T11:24:27;2.80;;;1.10;;
27223;SDS011;14965;50.660;13.226;2023-09-19T11:27:08;1.83;;;0.93;;
27223;SDS011;14965;50.660;13.226;2023-09-19T11:29:37;3.03;;;1.33;;
27223;SDS011;14965;50.660;13.226;2023-09-19T11:32:03;4.03;;;1.20;;
27223;SDS011;14965;50.660;13.226;2023-09-19T11:34:38;2.70;;;1.08;;
27223;SDS011;14965;50.660;13.226;2023-09-19T11:40:31;1.98;;;1.08;;
27223;SDS011;14965;50.660;13.226;2023-09-19T11:42:57;2.97;;;1.20;;
27223;SDS011;14965;50.660;13.226;2023-09-19T11:48:26;3.17;;;1.30;;
27223;SDS011;14965;50.660;13.226;2023-09-19T11:50:54;3.15;;;1.40;;
27223;SDS011;14965;50.660;13.226;2023-09-19T11:53:23;2.43;;;1.20;;
27223;SDS011;14965;50.660;13.226;2023-09-19T11:55:56;2.88;;;1.33;;
27223;SDS011;14965;50.660;13.226;2023-09-19T11:58:25;3.35;;;1.38;;
27223;SDS011;14965;50.660;13.226;2023-09-19T12:00:53;3.20;;;1.30;;
27223;SDS011;14965;50.660;13.226;2023-09-19T12:03:21;6.18;;;1.33;;
27223;SDS011;14965;50.660;13.226;2023-09-19T12:05:48;3.28;;;1.35;;
27223;SDS011;14965;50.660;13.226;2023-09-19T12:08:14;3.47;;;1.42;;
27223;SDS011;14965;50.660;13.226;2023-09-19T12:10:46;2.95;;;1.45;;
27223;SDS011;14965;50.660;13.226;2023-09-19T12:13:15;3.85;;;1.35;;
27223;SDS011;14965;50.660;13.226;2023-09-19T12:15:42;2.65;;;1.30;;
27223;SDS011;14965;50.660;13.226;2023-09-19T12:18:08;2.67;;;1.42;;
27223;SDS011;14965;50.660;13.226;2023-09-19T12:20:43;3.55;;;1.45;;
27223;SDS011;14965;50.660;13.226;2023-09-19T12:23:12;2.13;;;1.25;;
27223;SDS011;14965;50.660;13.226;2023-09-19T12:28:08;2.38;;;1.50;;
27223;SDS011;14965;50.660;13.226;2023-09-19T12:30:34;4.90;;;1.73;;
27223;SDS011;14965;50.660;13.226;2023-09-19T12:33:00;2.10;;;1.38;;
27223;SDS011;14965;50.660;13.226;2023-09-19T12:35:27;3.10;;;1.55;;
27223;SDS011;14965;50.660;13.226;2023-09-19T12:37:54;4.78;;;1.55;;
27223;SDS011;14965;50.660;13.226;2023-09-19T12:40:21;7.35;;;1.90;;
27223;SDS011;14965;50.660;13.226;2023-09-19T12:42:48;3.28;;;1.58;;
27223;SDS011;14965;50.660;13.226;2023-09-19T12:45:16;4.43;;;1.52;;
27223;SDS011;14965;50.660;13.226;2023-09-19T12:51:04;3.50;;;1.80;;
27223;SDS011;14965;50.660;13.226;2023-09-19T12:53:32;4.50;;;1.80;;
27223;SDS011;14965;50.660;13.226;2023-09-19T12:55:59;3.35;;;1.60;;
27223;SDS011;14965;50.660;13.226;2023-09-19T12:58:25;3.10;;;1.75;;
27223;SDS011;14965;50.660;13.226;2023-09-19T13:00:53;3.05;;;1.88;;
27223;SDS011;14965;50.660;13.226;2023-09-19T13:03:25;4.22;;;1.77;;
27223;SDS011;14965;50.660;13.226;2023-09-19T13:05:52;5.65;;;2.03;;
27223;SDS011;14965;50.660;13.226;2023-09-19T13:08:21;3.97;;;2.00;;
27223;SDS011;14965;50.660;13.226;2023-09-19T13:10:59;3.17;;;1.90;;
27223;SDS011;14965;50.660;13.226;2023-09-19T13:13:32;2.92;;;1.67;;
27223;SDS011;14965;50.660;13.226;2023-09-19T13:16:00;2.47;;;1.60;;
27223;SDS011;14965;50.660;13.226;2023-09-19T13:21:05;3.65;;;1.88;;
27223;SDS011;14965;50.660;13.226;2023-09-19T13:23:33;3.75;;;1.98;;
27223;SDS011;14965;50.660;13.226;2023-09-19T13:25:59;3.13;;;1.80;;
27223;SDS011;14965;50.660;13.226;2023-09-19T13:28:25;3.63;;;1.60;;
27223;SDS011;14965;50.660;13.226;2023-09-19T13:30:51;2.80;;;1.55;;
27223;SDS011;14965;50.660;13.226;2023-09-19T13:33:18;4.38;;;1.88;;
27223;SDS011;14965;50.660;13.226;2023-09-19T13:35:44;4.25;;;1.60;;
27223;SDS011;14965;50.660;13.226;2023-09-19T13:38:10;5.72;;;2.38;;
27223;SDS011;14965;50.660;13.226;2023-09-19T13:40:36;5.63;;;2.17;;
27223;SDS011;14965;50.660;13.226;2023-09-19T13:43:04;4.55;;;1.95;;
27223;SDS011;14965;50.660;13.226;2023-09-19T13:45:30;2.83;;;1.90;;
27223;SDS011;14965;50.660;13.226;2023-09-19T13:47:56;3.60;;;1.60;;
27223;SDS011;14965;50.660;13.226;2023-09-19T13:50:23;2.15;;;1.60;;
27223;SDS011;14965;50.660;13.226;2023-09-19T13:52:49;3.58;;;1.77;;
27223;SDS011;14965;50.660;13.226;2023-09-19T13:55:16;3.63;;;1.80;;
27223;SDS011;14965;50.660;13.226;2023-09-19T13:57:42;8.10;;;1.90;;
27223;SDS011;14965;50.660;13.226;2023-09-19T14:00:08;6.32;;;2.00;;
27223;SDS011;14965;50.660;13.226;2023-09-19T14:02:35;3.35;;;2.00;;
27223;SDS011;14965;50.660;13.226;2023-09-19T14:05:01;4.20;;;2.08;;
27223;SDS011;14965;50.660;13.226;2023-09-19T14:07:29;4.47;;;1.70;;
27223;SDS011;14965;50.660;13.226;2023-09-19T14:09:55;3.10;;;1.75;;
27223;SDS011;14965;50.660;13.226;2023-09-19T14:12:21;3.58;;;2.10;;
27223;SDS011;14965;50.660;13.226;2023-09-19T14:14:47;3.92;;;2.25;;
27223;SDS011;14965;50.660;13.226;2023-09-19T14:17:13;4.63;;;2.58;;
27223;SDS011;14965;50.660;13.226;2023-09-19T14:19:40;6.03;;;2.75;;
27223;SDS011;14965;50.660;13.226;2023-09-19T14:22:06;7.25;;;2.45;;
27223;SDS011;14965;50.660;13.226;2023-09-19T14:24:34;6.53;;;2.45;;
27223;SDS011;14965;50.660;13.226;2023-09-19T14:27:00;6.07;;;2.50;;
27223;SDS011;14965;50.660;13.226;2023-09-19T14:29:26;7.55;;;2.90;;
27223;SDS011;14965;50.660;13.226;2023-09-19T14:31:52;5.03;;;2.20;;
27223;SDS011;14965;50.660;13.226;2023-09-19T14:34:18;5.68;;;2.70;;
27223;SDS011;14965;50.660;13.226;2023-09-19T14:36:44;5.63;;;2.67;;
27223;SDS011;14965;50.660;13.226;2023-09-19T14:39:11;6.63;;;2.67;;
27223;SDS011;14965;50.660;13.226;2023-09-19T14:41:39;4.18;;;2.47;;
27223;SDS011;14965;50.660;13.226;2023-09-19T14:44:05;6.20;;;2.60;;
27223;SDS011;14965;50.660;13.226;2023-09-19T14:46:31;4.22;;;2.40;;
27223;SDS011;14965;50.660;13.226;2023-09-19T14:48:57;5.40;;;2.63;;
27223;SDS011;14965;50.660;13.226;2023-09-19T14:51:23;6.28;;;2.50;;
27223;SDS011;14965;50.660;13.226;2023-09-19T14:53:49;5.20;;;2.67;;
27223;SDS011;14965;50.660;13.226;2023-09-19T14:56:15;4.93;;;2.60;;
27223;SDS011;14965;50.660;13.226;2023-09-19T14:58:42;4.10;;;2.53;;
27223;SDS011;14965;50.660;13.226;2023-09-19T15:01:09;7.28;;;2.80;;
27223;SDS011;14965;50.660;13.226;2023-09-19T15:06:04;5.18;;;2.60;;
27223;SDS011;14965;50.660;13.226;2023-09-19T15:08:32;5.32;;;2.80;;
27223;SDS011;14965;50.660;13.226;2023-09-19T15:10:59;7.68;;;2.88;;
27223;SDS011;14965;50.660;13.226;2023-09-19T15:13:25;6.18;;;2.72;;
27223;SDS011;14965;50.660;13.226;2023-09-19T15:15:53;6.20;;;2.80;;
27223;SDS011;14965;50.660;13.226;2023-09-19T15:18:18;8.65;;;2.88;;